Time;durP1;ratioP1;P1;durP2;ratioP2;P2;SDS_P1;SDS_P2;PMS_P1;PMS_P2;Temp;Humidity;BMP_temperature;BMP_pressure;BME280_temperature;BME280_humidity;BME280_pressure;Samples;Min_cycle;Max_cycle;Signal;HPM_P1;HPM_P2
2022/08/04 00:01:02;;;;;;;88.57;50.75;;;25.10;99.90;;;;;;5031116;28;20029;-66
2022/08/04 00:03:40;;;;;;;70.35;43.88;;;25.00;99.90;;;;;;5030799;28;20026;-65
2022/08/04 00:06:28;;;;;;;67.65;42.63;;;25.00;99.90;;;;;;5031013;28;20527;-66
2022/08/04 00:09:01;;;;;;;56.88;39.20;;;25.00;99.90;;;;;;5030956;28;20021;-66
2022/08/04 00:11:30;;;;;;;56.65;38.50;;;25.00;99.90;;;;;;5031180;28;20071;-66
2022/08/04 00:14:04;;;;;;;59.30;37.22;;;25.00;99.90;;;;;;5029988;28;20061;-66
2022/08/04 00:16:36;;;;;;;50.95;37.72;;;25.10;99.90;;;;;;5030899;28;20037;-66
2022/08/04 00:19:15;;;;;;;50.55;35.47;;;25.10;99.90;;;;;;5030773;28;20029;-66
2022/08/04 00:21:47;;;;;;;44.15;32.63;;;25.20;99.90;;;;;;5030784;28;20049;-66
2022/08/04 00:24:15;;;;;;;42.40;33.08;;;25.10;99.90;;;;;;5030630;28;20034;-66
2022/08/04 00:26:42;;;;;;;38.90;29.10;;;25.20;99.90;;;;;;5030562;28;20030;-66
2022/08/04 00:29:10;;;;;;;39.45;30.80;;;25.20;99.90;;;;;;5030703;28;20483;-66
2022/08/04 00:31:36;;;;;;;39.65;30.73;;;25.30;99.90;;;;;;5030640;28;20031;-66
2022/08/04 00:34:04;;;;;;;43.75;32.20;;;25.30;99.90;;;;;;5030464;28;20081;-65
2022/08/04 00:36:31;;;;;;;46.25;33.33;;;25.40;99.90;;;;;;5030625;28;20034;-65
2022/08/04 00:38:59;;;;;;;48.45;34.78;;;25.40;99.90;;;;;;5030574;28;20053;-65
2022/08/04 00:41:41;;;;;;;44.00;33.35;;;25.50;99.90;;;;;;5030399;28;20030;-66
2022/08/04 00:44:36;;;;;;;51.13;35.10;;;25.60;99.90;;;;;;5030620;28;20051;-66
2022/08/04 00:47:06;;;;;;;47.13;35.80;;;25.70;99.90;;;;;;5030424;28;20026;-66
2022/08/04 00:49:45;;;;;;;44.55;34.88;;;25.70;99.90;;;;;;5030491;28;20075;-66
2022/08/04 00:52:25;;;;;;;49.75;33.85;;;25.80;99.90;;;;;;5023691;28;20127;-66
2022/08/04 00:55:05;;;;;;;41.17;31.08;;;25.90;99.90;;;;;;5030423;28;20026;-66
2022/08/04 00:57:41;;;;;;;39.00;31.00;;;26.00;99.90;;;;;;5010862;28;20030;-67
2022/08/04 01:00:12;;;;;;;39.33;30.67;;;26.10;99.90;;;;;;5014083;28;20030;-65
2022/08/04 01:03:11;;;;;;;36.83;31.60;;;26.00;99.90;;;;;;5019649;28;20128;-66
2022/08/04 01:05:46;;;;;;;35.25;29.88;;;26.10;99.90;;;;;;5029970;28;20086;-66
2022/08/04 01:08:30;;;;;;;38.67;28.70;;;26.20;99.90;;;;;;5030229;28;20025;-66
2022/08/04 01:11:06;;;;;;;33.92;25.33;;;26.40;99.90;;;;;;5030064;28;20421;-65
2022/08/04 01:13:41;;;;;;;32.70;24.52;;;26.40;99.90;;;;;;5029982;28;20053;-66
2022/08/04 01:16:10;;;;;;;37.50;27.25;;;26.50;99.90;;;;;;5029896;28;20368;-66
2022/08/04 01:19:00;;;;;;;33.35;25.48;;;26.50;99.90;;;;;;5030007;28;20035;-66
2022/08/04 01:22:06;;;;;;;38.85;27.48;;;26.50;99.90;;;;;;5029853;28;20026;-66
2022/08/04 01:24:50;;;;;;;160.35;122.05;;;26.50;99.90;;;;;;5030090;28;20490;-65
2022/08/04 01:27:32;;;;;;;69.68;53.53;;;26.50;99.90;;;;;;5033586;28;20025;-65
2022/08/04 01:29:59;;;;;;;53.05;39.92;;;26.70;99.90;;;;;;5033341;28;20026;-66
2022/08/04 01:32:34;;;;;;;47.53;35.95;;;26.80;99.90;;;;;;5033195;28;20017;-66
2022/08/04 01:35:06;;;;;;;57.45;40.20;;;26.80;99.90;;;;;;5031327;28;20075;-66
2022/08/04 01:37:54;;;;;;;49.83;34.70;;;26.80;99.90;;;;;;5031354;28;20025;-65
2022/08/04 01:40:22;;;;;;;47.25;33.17;;;26.80;99.90;;;;;;5031238;28;20467;-65
2022/08/04 01:42:52;;;;;;;54.00;35.08;;;26.90;99.90;;;;;;5031289;28;20044;-65
2022/08/04 01:45:19;;;;;;;47.90;34.08;;;27.00;99.90;;;;;;5031363;28;20109;-65
2022/08/04 01:47:52;;;;;;;35.90;25.70;;;27.10;99.90;;;;;;5031433;28;20045;-65
2022/08/04 01:50:20;;;;;;;58.42;33.83;;;27.10;99.90;;;;;;5033441;28;20117;-66
2022/08/04 01:52:47;;;;;;;40.22;26.30;;;27.10;99.90;;;;;;5033169;28;20032;-65
2022/08/04 01:55:16;;;;;;;54.30;32.58;;;27.20;99.90;;;;;;5032935;28;20059;-65
2022/08/04 01:57:45;;;;;;;56.97;31.92;;;27.20;99.90;;;;;;5032946;28;20047;-66
2022/08/04 02:00:16;;;;;;;42.03;27.92;;;27.20;99.90;;;;;;5033077;28;20468;-66
2022/08/04 02:02:44;;;;;;;52.47;31.17;;;27.30;99.90;;;;;;5033051;28;20490;-66
2022/08/04 02:05:15;;;;;;;40.95;30.65;;;27.30;99.90;;;;;;5032819;28;20033;-64
2022/08/04 02:08:10;;;;;;;47.35;31.40;;;27.40;99.90;;;;;;5032803;28;20079;-66
2022/08/04 02:10:53;;;;;;;40.83;28.02;;;27.50;99.90;;;;;;5033057;28;20467;-66
2022/08/04 02:13:32;;;;;;;38.55;27.02;;;27.50;99.90;;;;;;5032650;28;20064;-65
2022/08/04 02:16:20;;;;;;;35.70;26.50;;;27.60;99.90;;;;;;5032651;28;20036;-64
2022/08/04 02:18:59;;;;;;;37.63;29.05;;;27.70;99.90;;;;;;5032805;28;20056;-64
2022/08/04 02:21:26;;;;;;;42.53;30.05;;;27.80;99.90;;;;;;5032586;28;20033;-66
2022/08/04 02:24:01;;;;;;;38.90;30.08;;;27.80;99.90;;;;;;5032615;28;20074;-66
2022/08/04 02:26:31;;;;;;;52.72;30.60;;;27.90;99.90;;;;;;5032471;28;20025;-65
2022/08/04 02:29:18;;;;;;;43.97;30.67;;;28.00;99.90;;;;;;5032591;28;20032;-66
2022/08/04 02:31:45;;;;;;;51.20;35.03;;;28.00;99.90;;;;;;5033179;28;20082;-66
2022/08/04 02:34:32;;;;;;;49.00;36.05;;;28.20;99.90;;;;;;5032795;28;20043;-65
2022/08/04 02:37:03;;;;;;;46.47;33.90;;;28.50;99.90;;;;;;5032397;28;20033;-66
2022/08/04 02:39:34;;;;;;;45.35;33.15;;;28.60;99.90;;;;;;5032951;28;20514;-66
2022/08/04 02:42:04;;;;;;;48.40;33.33;;;28.80;99.90;;;;;;5032538;28;20049;-66
2022/08/04 02:44:31;;;;;;;53.17;34.92;;;28.70;99.90;;;;;;5032323;28;20037;-66
2022/08/04 02:47:00;;;;;;;47.92;34.30;;;28.70;99.90;;;;;;5032242;28;20093;-66
2022/08/04 02:49:29;;;;;;;52.10;32.83;;;28.60;99.90;;;;;;5031821;28;20026;-67
2022/08/04 02:51:57;;;;;;;45.88;30.80;;;28.70;99.90;;;;;;5031213;28;20169;-68
2022/08/04 02:54:30;;;;;;;50.58;31.27;;;28.90;99.90;;;;;;5032238;28;20079;-67
2022/08/04 02:56:58;;;;;;;42.13;29.67;;;29.10;99.90;;;;;;5032227;28;20077;-68
2022/08/04 02:59:29;;;;;;;37.53;28.88;;;29.10;99.90;;;;;;5032088;28;20109;-68
2022/08/04 03:01:56;;;;;;;40.15;28.92;;;29.10;99.90;;;;;;5032089;28;20151;-68
2022/08/04 03:04:43;;;;;;;45.40;31.40;;;29.20;99.90;;;;;;5031901;28;20021;-66
2022/08/04 03:07:34;;;;;;;37.53;27.08;;;29.20;99.90;;;;;;5031116;28;20036;-66
2022/08/04 03:10:14;;;;;;;34.08;23.73;;;29.10;99.90;;;;;;5030367;28;20029;-66
2022/08/04 03:12:59;;;;;;;31.52;23.65;;;29.10;99.90;;;;;;5030158;28;20090;-66
2022/08/04 03:15:39;;;;;;;29.88;22.80;;;29.10;99.90;;;;;;5013934;28;20022;-67
2022/08/04 03:18:09;;;;;;;25.05;19.75;;;29.10;99.90;;;;;;5012829;28;20033;-67
2022/08/04 03:21:04;;;;;;;31.58;21.60;;;29.10;99.90;;;;;;5013172;28;20071;-67
2022/08/04 03:23:54;;;;;;;29.33;21.20;;;29.10;99.90;;;;;;5018451;28;20033;-67
2022/08/04 03:26:41;;;;;;;27.75;19.17;;;29.00;99.90;;;;;;5032537;28;20100;-68
2022/08/04 03:29:28;;;;;;;24.50;18.13;;;29.10;99.90;;;;;;5032586;28;20041;-71
2022/08/04 03:32:08;;;;;;;21.92;16.52;;;29.30;99.90;;;;;;5025423;28;20029;-71
2022/08/04 03:35:05;;;;;;;25.75;17.35;;;29.30;99.90;;;;;;5015419;28;20036;-65
2022/08/04 03:37:38;;;;;;;28.58;16.45;;;29.40;99.90;;;;;;5030735;28;20661;-64
2022/08/04 03:40:34;;;;;;;25.70;17.65;;;29.40;99.90;;;;;;5031687;28;20112;-66
2022/08/04 03:43:13;;;;;;;20.77;15.73;;;29.30;99.90;;;;;;5031636;28;20041;-66
2022/08/04 03:46:05;;;;;;;21.15;15.18;;;29.30;99.90;;;;;;5031580;28;20029;-66
2022/08/04 03:49:11;;;;;;;18.95;14.43;;;29.40;99.90;;;;;;5030219;28;20552;-66
2022/08/04 03:54:52;;;;;;;21.98;16.17;;;29.60;99.90;;;;;;5032223;28;20050;-66
2022/08/04 03:57:28;;;;;;;24.20;17.65;;;29.50;99.90;;;;;;5032054;28;20379;-67
2022/08/04 04:00:02;;;;;;;26.75;20.77;;;29.50;99.90;;;;;;5032044;28;20104;-67
2022/08/04 04:02:50;;;;;;;25.10;19.70;;;29.50;99.90;;;;;;5031477;28;20062;-67
2022/08/04 04:05:53;;;;;;;23.20;16.30;;;29.40;99.90;;;;;;5031700;28;20037;-66
2022/08/04 04:08:19;;;;;;;24.83;17.77;;;29.50;99.90;;;;;;5031656;28;20038;-66
2022/08/04 04:11:05;;;;;;;21.75;16.15;;;29.70;99.90;;;;;;5030750;28;20171;-66
2022/08/04 04:13:34;;;;;;;24.55;15.18;;;29.70;99.90;;;;;;5031488;28;20038;-66
2022/08/04 04:16:18;;;;;;;22.42;17.05;;;29.70;99.90;;;;;;5029519;28;20026;-66
2022/08/04 04:19:01;;;;;;;23.05;16.25;;;29.60;99.90;;;;;;5023516;28;20406;-66
2022/08/04 04:21:39;;;;;;;41.72;27.75;;;29.70;99.90;;;;;;5022529;28;20036;-66
2022/08/04 04:24:23;;;;;;;19.50;15.60;;;29.70;99.90;;;;;;5011854;28;20049;-67
2022/08/04 04:27:00;;;;;;;21.77;13.10;;;29.70;99.90;;;;;;5011978;28;20034;-67
2022/08/04 04:30:07;;;;;;;16.67;13.82;;;29.70;99.90;;;;;;5011683;28;20014;-67
2022/08/04 04:32:52;;;;;;;21.15;16.52;;;29.80;99.90;;;;;;5011658;28;20051;-65
2022/08/04 04:35:26;;;;;;;74.65;50.70;;;29.90;99.90;;;;;;5010983;28;20025;-65
2022/08/04 04:38:02;;;;;;;65.90;41.53;;;30.10;99.90;;;;;;5011021;28;20060;-65
2022/08/04 04:40:39;;;;;;;39.80;27.02;;;30.30;99.90;;;;;;5010700;28;20454;-65
2022/08/04 04:43:10;;;;;;;28.23;20.92;;;30.20;99.90;;;;;;5010677;28;20033;-65
2022/08/04 04:45:49;;;;;;;41.08;23.42;;;30.20;99.90;;;;;;5010702;28;20022;-64
2022/08/04 04:48:28;;;;;;;35.05;23.65;;;30.20;99.90;;;;;;5001653;28;20040;-64
2022/08/04 04:51:10;;;;;;;25.25;17.98;;;30.20;99.90;;;;;;5000422;28;20097;-64
2022/08/04 04:53:37;;;;;;;;;;;30.40;99.90;;;;;;5001702;28;20492;-64
2022/08/04 04:56:17;;;;;;;24.25;17.65;;;30.40;99.90;;;;;;4999100;28;19906;-64
2022/08/04 04:58:44;;;;;;;32.03;20.80;;;30.50;99.90;;;;;;4998663;28;20109;-64
2022/08/04 05:01:19;;;;;;;27.10;17.10;;;30.60;99.90;;;;;;5000469;28;20026;-64
2022/08/04 05:04:07;;;;;;;45.22;27.88;;;30.70;99.90;;;;;;4999003;28;20031;-65
2022/08/04 05:06:44;;;;;;;25.48;18.98;;;30.70;99.90;;;;;;5000368;28;20423;-65
2022/08/04 05:09:12;;;;;;;38.05;28.67;;;30.60;99.90;;;;;;4999477;28;20101;-64
2022/08/04 05:11:53;;;;;;;32.42;22.10;;;30.70;99.90;;;;;;4998799;28;20026;-65
2022/08/04 05:14:26;;;;;;;24.70;18.13;;;30.70;99.90;;;;;;5000360;28;20152;-64
2022/08/04 05:17:20;;;;;;;18.95;13.82;;;30.70;99.90;;;;;;4999669;28;20022;-65
2022/08/04 05:20:04;;;;;;;16.85;14.65;;;30.60;99.90;;;;;;5000448;28;20456;-64
2022/08/04 05:22:50;;;;;;;27.98;20.73;;;30.70;99.90;;;;;;4998755;28;20547;-64
2022/08/04 05:25:30;;;;;;;82.03;63.88;;;30.70;99.90;;;;;;4998393;28;20075;-64
2022/08/04 05:28:09;;;;;;;38.05;29.45;;;30.80;99.90;;;;;;5007455;28;20105;-64
2022/08/04 05:30:49;;;;;;;32.45;26.10;;;30.70;99.90;;;;;;5006631;28;20022;-64
2022/08/04 05:33:28;;;;;;;35.83;27.70;;;30.70;99.90;;;;;;5000837;28;20105;-64
2022/08/04 05:35:58;;;;;;;31.83;24.42;;;30.70;99.90;;;;;;5000843;28;20027;-65
2022/08/04 05:38:30;;;;;;;32.55;22.33;;;30.80;99.90;;;;;;5001508;28;20059;-64
2022/08/04 05:40:57;;;;;;;24.90;17.98;;;30.80;99.90;;;;;;4996377;28;20155;-64
2022/08/04 05:43:24;;;;;;;20.38;15.68;;;30.80;99.90;;;;;;4992325;28;20031;-64
2022/08/04 05:45:53;;;;;;;20.38;14.38;;;30.90;99.90;;;;;;4991542;28;20091;-64
2022/08/04 05:48:20;;;;;;;22.13;14.60;;;31.00;99.90;;;;;;4991592;28;20018;-63
2022/08/04 05:50:47;;;;;;;26.83;23.13;;;31.20;99.90;;;;;;4991259;28;20516;-65
2022/08/04 05:53:16;;;;;;;25.20;17.70;;;31.30;99.90;;;;;;4991139;28;20022;-64
2022/08/04 05:55:45;;;;;;;22.25;15.60;;;31.20;99.90;;;;;;4990327;28;20030;-66
2022/08/04 05:58:12;;;;;;;28.55;20.00;;;31.10;99.90;;;;;;4990048;28;20035;-65
2022/08/04 06:00:42;;;;;;;26.40;18.95;;;31.30;99.90;;;;;;4990096;28;20030;-66
2022/08/04 06:03:10;;;;;;;25.33;18.90;;;31.30;99.90;;;;;;4990218;28;20031;-65
2022/08/04 06:05:40;;;;;;;22.10;14.43;;;31.50;99.90;;;;;;4989571;28;20026;-65
2022/08/04 06:08:07;;;;;;;27.80;15.70;;;31.60;99.90;;;;;;4988427;28;20052;-64
2022/08/04 06:10:36;;;;;;;19.63;13.90;;;31.70;99.90;;;;;;4988989;28;20399;-65
2022/08/04 06:13:09;;;;;;;41.83;37.40;;;31.50;99.90;;;;;;4991376;28;20172;-65
2022/08/04 06:15:40;;;;;;;19.17;15.00;;;31.50;99.90;;;;;;4991596;28;20035;-65
2022/08/04 06:18:10;;;;;;;21.88;15.48;;;31.40;99.90;;;;;;4991469;28;20027;-64
2022/08/04 06:20:39;;;;;;;16.25;13.30;;;31.50;99.90;;;;;;4991454;28;20030;-65
2022/08/04 06:23:10;;;;;;;19.15;13.90;;;31.60;99.90;;;;;;4993338;28;20053;-66
2022/08/04 06:25:51;;;;;;;17.67;12.75;;;31.50;99.90;;;;;;4993228;28;20506;-65
2022/08/04 06:28:20;;;;;;;24.75;15.50;;;31.60;99.90;;;;;;4993262;28;20053;-65
2022/08/04 06:30:49;;;;;;;24.67;16.60;;;31.40;99.90;;;;;;4992973;28;20491;-65
2022/08/04 06:33:31;;;;;;;18.20;13.60;;;31.30;99.90;;;;;;4992941;28;20049;-66
2022/08/04 06:35:58;;;;;;;;;;;31.20;99.90;;;;;;4993272;28;20388;-66
2022/08/04 06:38:27;;;;;;;23.05;13.90;;;31.20;99.90;;;;;;4993091;28;19905;-65
2022/08/04 06:40:56;;;;;;;46.42;34.55;;;31.10;99.90;;;;;;4992962;28;20113;-64
2022/08/04 06:43:25;;;;;;;47.65;38.25;;;31.10;99.90;;;;;;4992938;28;20084;-63
2022/08/04 06:45:53;;;;;;;23.38;17.05;;;31.10;99.90;;;;;;4993002;28;20383;-64
2022/08/04 06:48:21;;;;;;;24.55;15.57;;;31.20;99.90;;;;;;4993053;28;20075;-64
2022/08/04 06:50:50;;;;;;;20.75;15.65;;;31.40;99.90;;;;;;4992850;28;20435;-64
2022/08/04 06:53:18;;;;;;;22.45;15.73;;;31.50;99.90;;;;;;4993100;28;20053;-64
2022/08/04 06:55:48;;;;;;;25.77;18.38;;;31.50;99.90;;;;;;4992797;28;20446;-63
2022/08/04 06:58:16;;;;;;;521.42;418.77;;;31.50;99.90;;;;;;4992728;28;20135;-63
2022/08/04 07:00:44;;;;;;;104.00;81.80;;;31.50;99.90;;;;;;4992708;28;20029;-64
2022/08/04 07:03:12;;;;;;;40.25;27.55;;;31.60;99.90;;;;;;4998750;28;20540;-63
2022/08/04 07:05:40;;;;;;;40.03;25.45;;;31.60;99.90;;;;;;5020775;28;20053;-63
2022/08/04 07:08:09;;;;;;;39.38;25.65;;;31.50;99.90;;;;;;5025501;28;20030;-63
2022/08/04 07:10:36;;;;;;;28.55;18.88;;;31.40;99.90;;;;;;5022511;28;20491;-63
2022/08/04 07:13:03;;;;;;;33.65;20.63;;;31.40;99.90;;;;;;5031543;28;20021;-63
2022/08/04 07:15:30;;;;;;;32.50;21.10;;;31.40;99.90;;;;;;5031689;28;20033;-63
2022/08/04 07:17:58;;;;;;;24.88;15.45;;;31.50;99.90;;;;;;5031692;28;20546;-64
2022/08/04 07:20:26;;;;;;;20.60;16.30;;;31.50;99.90;;;;;;5017287;28;20030;-64
2022/08/04 07:22:53;;;;;;;27.08;19.60;;;31.50;99.90;;;;;;5030331;28;20018;-64
2022/08/04 07:25:20;;;;;;;58.90;43.72;;;31.50;99.90;;;;;;5025777;28;20535;-65
2022/08/04 07:27:47;;;;;;;62.92;46.13;;;31.50;99.90;;;;;;5025219;28;20034;-68
2022/08/04 07:30:14;;;;;;;32.70;24.88;;;31.50;99.90;;;;;;5031549;28;20125;-68
2022/08/04 07:32:44;;;;;;;37.08;23.17;;;31.60;99.90;;;;;;5031420;28;20471;-67
2022/08/04 07:35:13;;;;;;;42.55;26.40;;;31.60;99.90;;;;;;5031240;28;20040;-68
2022/08/04 07:37:39;;;;;;;77.95;48.13;;;31.70;99.90;;;;;;5031420;28;20587;-67
2022/08/04 07:40:07;;;;;;;35.97;24.98;;;31.70;99.90;;;;;;5031223;28;20076;-67
2022/08/04 07:42:34;;;;;;;32.97;21.27;;;31.80;99.90;;;;;;5031183;28;20025;-67
2022/08/04 07:45:01;;;;;;;42.40;23.05;;;31.80;99.90;;;;;;5031208;28;20025;-66
2022/08/04 07:47:28;;;;;;;46.30;29.70;;;31.90;99.90;;;;;;5031143;28;20025;-66
2022/08/04 07:49:55;;;;;;;54.15;30.95;;;31.70;99.90;;;;;;5021883;28;20037;-65
2022/08/04 07:52:22;;;;;;;54.45;30.00;;;31.50;99.90;;;;;;5029411;28;20094;-65
2022/08/04 07:54:50;;;;;;;94.28;41.60;;;31.30;99.90;;;;;;5030787;28;20096;-64
2022/08/04 07:57:19;;;;;;;51.90;25.05;;;31.10;99.90;;;;;;5031472;28;20029;-63
2022/08/04 07:59:47;;;;;;;52.55;25.17;;;30.90;99.90;;;;;;5030286;28;20054;-63
2022/08/04 08:02:17;;;;;;;26.08;16.63;;;31.00;99.90;;;;;;5001333;28;20022;-62
2022/08/04 08:04:45;;;;;;;31.85;18.33;;;31.00;99.90;;;;;;5001467;28;20070;-64
2022/08/04 08:07:12;;;;;;;37.20;19.00;;;30.90;99.90;;;;;;5000182;28;20037;-63
2022/08/04 08:09:39;;;;;;;23.58;12.25;;;31.00;99.90;;;;;;5012916;28;20109;-65
2022/08/04 08:12:08;;;;;;;22.90;13.43;;;30.90;99.90;;;;;;5001208;28;20014;-65
2022/08/04 08:14:35;;;;;;;23.33;15.32;;;30.90;99.90;;;;;;4998160;28;20054;-65
2022/08/04 08:17:02;;;;;;;22.80;15.93;;;30.80;99.90;;;;;;5000181;28;20341;-66
2022/08/04 08:19:30;;;;;;;26.85;17.27;;;30.80;99.90;;;;;;4999477;28;20464;-66
2022/08/04 08:21:58;;;;;;;21.60;15.13;;;30.90;99.90;;;;;;4999579;28;20032;-66
2022/08/04 08:24:25;;;;;;;26.73;17.80;;;30.90;99.90;;;;;;4998498;28;20039;-66
2022/08/04 08:26:52;;;;;;;27.67;19.35;;;30.90;99.90;;;;;;4998819;28;20030;-65
2022/08/04 08:29:19;;;;;;;32.85;19.95;;;30.90;99.90;;;;;;5000009;28;20467;-66
2022/08/04 08:31:46;;;;;;;33.40;20.70;;;31.00;99.90;;;;;;5001249;28;20038;-66
2022/08/04 08:34:13;;;;;;;36.25;22.42;;;31.00;99.90;;;;;;4999567;28;20029;-66
2022/08/04 08:36:45;;;;;;;33.00;21.20;;;30.90;99.90;;;;;;5000851;28;20077;-66
2022/08/04 08:39:28;;;;;;;29.77;20.38;;;30.80;99.90;;;;;;5002983;28;20113;-66
2022/08/04 08:42:14;;;;;;;28.10;20.98;;;30.80;99.90;;;;;;5070650;22;20048;-66
2022/08/04 08:44:52;;;;;;;34.47;24.10;;;30.80;99.90;;;;;;5065560;28;20078;-66
2022/08/04 08:47:45;;;;;;;31.58;20.75;;;30.70;99.90;;;;;;5067950;28;20044;-66
2022/08/04 08:50:40;;;;;;;138.15;98.53;;;30.80;99.90;;;;;;5067156;28;20075;-65
2022/08/04 08:53:31;;;;;;;67.25;46.03;;;30.80;99.90;;;;;;5059234;28;20038;-66
2022/08/04 08:56:01;;;;;;;46.35;29.23;;;30.80;99.90;;;;;;5066613;28;20079;-66
2022/08/04 08:58:43;;;;;;;42.67;30.77;;;30.70;99.90;;;;;;5065612;28;20104;-66
2022/08/04 09:01:31;;;;;;;46.88;34.38;;;30.60;99.90;;;;;;5070561;28;20406;-67
2022/08/04 09:04:23;;;;;;;33.83;24.05;;;30.70;99.90;;;;;;5068814;28;20021;-67
2022/08/04 09:07:05;;;;;;;29.67;18.30;;;30.70;99.90;;;;;;5055854;28;20100;-67
2022/08/04 09:09:47;;;;;;;19.77;14.25;;;30.70;99.90;;;;;;5061276;28;20025;-67
2022/08/04 09:12:32;;;;;;;21.02;14.75;;;30.70;99.90;;;;;;5063801;28;20028;-66
2022/08/04 09:15:12;;;;;;;26.58;15.93;;;30.70;99.90;;;;;;5060662;28;20051;-68
2022/08/04 09:17:47;;;;;;;19.90;14.60;;;30.70;99.90;;;;;;5060799;28;20100;-67
2022/08/04 09:20:38;;;;;;;24.98;16.10;;;30.80;99.90;;;;;;5060371;28;20017;-64
2022/08/04 09:23:06;;;;;;;41.80;30.42;;;30.70;99.90;;;;;;5061542;28;20032;-64
2022/08/04 09:25:58;;;;;;;19.65;15.23;;;30.70;99.90;;;;;;5058072;28;20055;-64
2022/08/04 09:28:25;;;;;;;;;;;30.60;99.90;;;;;;5052075;28;20503;-67
2022/08/04 09:31:06;;;;;;;22.42;15.40;;;30.60;99.90;;;;;;5069623;28;20366;-67
2022/08/04 09:33:35;;;;;;;21.70;15.32;;;30.50;99.90;;;;;;5066374;28;20278;-67
2022/08/04 09:36:42;;;;;;;22.05;15.85;;;30.50;99.90;;;;;;5069937;28;20024;-66
2022/08/04 09:39:17;;;;;;;71.65;52.25;;;30.50;99.90;;;;;;5069030;28;20032;-66
2022/08/04 09:41:57;;;;;;;36.25;28.13;;;30.50;99.90;;;;;;5068392;28;20051;-66
2022/08/04 09:44:48;;;;;;;32.40;25.25;;;30.50;99.90;;;;;;5070042;28;20036;-66
2022/08/04 09:47:38;;;;;;;44.37;29.57;;;30.60;99.90;;;;;;5073418;28;20386;-66
2022/08/04 09:50:25;;;;;;;27.70;18.48;;;30.60;99.90;;;;;;5014086;28;20034;-66
2022/08/04 09:52:57;;;;;;;30.25;22.67;;;30.60;99.90;;;;;;5014071;28;20045;-66
2022/08/04 09:55:32;;;;;;;27.08;20.42;;;30.60;99.90;;;;;;5013599;28;20045;-66
2022/08/04 09:58:14;;;;;;;27.65;18.65;;;30.60;99.90;;;;;;5013043;28;20031;-65
2022/08/04 10:00:52;;;;;;;;;;;30.60;99.90;;;;;;5013211;28;20037;-65
2022/08/04 10:03:26;;;;;;;30.15;15.90;;;30.50;99.90;;;;;;5012919;28;20355;-65
2022/08/04 10:06:12;;;;;;;25.45;16.52;;;30.50;99.90;;;;;;5012868;28;20026;-65
2022/08/04 10:09:11;;;;;;;22.55;17.02;;;30.50;99.90;;;;;;5012837;28;20038;-65
2022/08/04 10:11:58;;;;;;;35.55;17.20;;;30.50;99.90;;;;;;5020903;28;20033;-66
2022/08/04 10:14:33;;;;;;;21.98;14.93;;;30.60;99.90;;;;;;5032399;28;20128;-63
2022/08/04 10:17:19;;;;;;;27.40;15.18;;;30.50;99.90;;;;;;5031592;28;20021;-66
2022/08/04 10:19:59;;;;;;;43.35;26.77;;;30.50;99.90;;;;;;5033023;28;20503;-65
2022/08/04 10:22:32;;;;;;;54.58;34.80;;;30.50;99.90;;;;;;5031172;28;20113;-65
2022/08/04 10:25:04;;;;;;;73.10;41.95;;;30.40;99.90;;;;;;5030719;28;20386;-66
2022/08/04 10:27:32;;;;;;;;;;;30.30;99.90;;;;;;5056074;28;20479;-66
2022/08/04 10:30:10;;;;;;;37.38;22.45;;;30.20;99.90;;;;;;5064466;28;19995;-65
2022/08/04 10:32:53;;;;;;;53.83;36.33;;;30.00;99.90;;;;;;5064074;28;20123;-66
2022/08/04 10:35:25;;;;;;;56.92;35.30;;;30.00;99.90;;;;;;5066042;28;20052;-65
2022/08/04 10:38:13;;;;;;;35.53;23.05;;;29.90;99.90;;;;;;5065479;28;20017;-66
2022/08/04 10:40:45;;;;;;;37.58;24.35;;;29.80;99.90;;;;;;5065826;28;20028;-66
2022/08/04 10:43:28;;;;;;;31.90;19.85;;;29.70;99.90;;;;;;5067215;28;20025;-66
2022/08/04 10:46:17;;;;;;;21.10;15.15;;;29.70;99.90;;;;;;5065768;28;20024;-69
2022/08/04 10:49:05;;;;;;;28.50;14.07;;;29.70;99.90;;;;;;5066378;28;20032;-69
2022/08/04 10:51:45;;;;;;;27.23;14.00;;;29.60;99.90;;;;;;5065206;28;20021;-69
2022/08/04 10:54:26;;;;;;;16.25;12.40;;;29.60;99.90;;;;;;5066098;28;20102;-68
2022/08/04 10:56:57;;;;;;;27.58;15.80;;;29.50;99.90;;;;;;5067491;28;20025;-68
2022/08/04 10:59:46;;;;;;;18.63;12.90;;;29.40;99.90;;;;;;5070992;28;20044;-69
2022/08/04 11:02:29;;;;;;;19.65;12.57;;;29.40;99.90;;;;;;5024871;28;20136;-69
2022/08/04 11:05:15;;;;;;;23.58;14.70;;;29.30;99.90;;;;;;5021917;28;20045;-69
2022/08/04 11:07:46;;;;;;;25.20;15.60;;;29.30;99.90;;;;;;5021500;28;20519;-70
2022/08/04 11:10:16;;;;;;;28.40;18.15;;;29.20;99.90;;;;;;5023806;28;20037;-70
2022/08/04 11:12:43;;;;;;;30.70;20.77;;;29.10;99.90;;;;;;5018704;28;20041;-69
2022/08/04 11:15:23;;;;;;;29.48;20.30;;;29.10;99.90;;;;;;5020284;28;20139;-69
2022/08/04 11:17:58;;;;;;;31.55;19.08;;;29.10;99.90;;;;;;5015515;28;20100;-68
2022/08/04 11:20:45;;;;;;;33.25;19.13;;;29.10;99.90;;;;;;5023362;28;20112;-69
2022/08/04 11:23:16;;;;;;;34.40;18.23;;;29.10;99.90;;;;;;5022559;28;20029;-69
2022/08/04 11:26:13;;;;;;;34.75;15.90;;;29.10;99.90;;;;;;5023171;28;20066;-70
2022/08/04 11:28:57;;;;;;;24.73;15.57;;;28.90;99.90;;;;;;4997396;28;20033;-69
2022/08/04 11:31:31;;;;;;;27.02;16.40;;;28.90;99.90;;;;;;5022142;28;20259;-69
2022/08/04 11:34:03;;;;;;;21.98;16.33;;;28.90;99.90;;;;;;5020988;28;20037;-68
2022/08/04 11:36:39;;;;;;;19.65;14.18;;;28.90;99.90;;;;;;5023853;28;20069;-69
2022/08/04 11:39:29;;;;;;;27.27;16.27;;;28.80;99.90;;;;;;5019949;28;20026;-69
2022/08/04 11:41:57;;;;;;;25.15;15.43;;;28.80;99.90;;;;;;4934562;29;20075;-69
2022/08/04 11:44:29;;;;;;;27.50;15.70;;;28.70;99.90;;;;;;4933584;29;20044;-69
2022/08/04 11:47:03;;;;;;;31.95;20.00;;;28.70;99.90;;;;;;4933861;29;20520;-69
2022/08/04 11:49:44;;;;;;;29.27;18.08;;;28.70;99.90;;;;;;4933547;29;20043;-70
2022/08/04 11:52:14;;;;;;;25.50;15.98;;;28.70;99.90;;;;;;4933489;29;20032;-70
2022/08/04 11:54:42;;;;;;;27.02;17.70;;;28.60;99.90;;;;;;4933418;29;20032;-69
2022/08/04 11:57:10;;;;;;;25.35;15.05;;;28.60;99.90;;;;;;4933757;29;20036;-68
2022/08/04 11:59:38;;;;;;;29.10;15.32;;;28.70;99.90;;;;;;4988484;28;20061;-69
2022/08/04 12:02:26;;;;;;;20.60;13.50;;;28.60;99.90;;;;;;4993344;28;20074;-68
2022/08/04 12:04:57;;;;;;;20.05;12.73;;;28.50;99.90;;;;;;4993252;28;20034;-68
2022/08/04 12:07:25;;;;;;;26.10;14.63;;;28.50;99.90;;;;;;4993376;28;20034;-68
2022/08/04 12:10:13;;;;;;;30.17;14.00;;;28.50;99.90;;;;;;4992436;28;20031;-68
2022/08/04 12:12:46;;;;;;;20.70;12.95;;;28.60;99.90;;;;;;4964736;28;20066;-69
2022/08/04 12:15:22;;;;;;;24.23;14.10;;;28.60;99.90;;;;;;4973552;28;20046;-69
2022/08/04 12:18:13;;;;;;;25.50;14.18;;;28.60;99.90;;;;;;4973230;28;20054;-70
2022/08/04 12:20:47;;;;;;;24.95;13.75;;;28.60;99.90;;;;;;4983962;28;20054;-69
2022/08/04 12:23:22;;;;;;;19.95;11.95;;;28.60;99.90;;;;;;4983889;28;20069;-68
2022/08/04 12:25:52;;;;;;;21.02;11.60;;;28.60;99.90;;;;;;4992361;28;20030;-69
2022/08/04 12:28:32;;;;;;;20.70;11.77;;;28.50;99.90;;;;;;4992785;28;20038;-69
2022/08/04 12:31:20;;;;;;;18.10;9.85;;;28.50;99.90;;;;;;4992621;28;20117;-68
2022/08/04 12:33:55;;;;;;;18.63;10.13;;;28.40;99.90;;;;;;4992739;28;20101;-67
2022/08/04 12:36:46;;;;;;;20.88;11.63;;;28.40;99.90;;;;;;4992416;28;20030;-68
2022/08/04 12:39:17;;;;;;;23.83;14.23;;;28.40;99.90;;;;;;4991997;28;20091;-68
2022/08/04 12:42:03;;;;;;;35.83;15.57;;;28.40;99.90;;;;;;4992534;28;20468;-68
2022/08/04 12:44:44;;;;;;;25.63;15.23;;;28.40;99.90;;;;;;4992024;28;20134;-68
2022/08/04 12:47:12;;;;;;;29.80;15.05;;;28.30;99.90;;;;;;4972962;28;20034;-68
2022/08/04 12:49:43;;;;;;;22.63;12.13;;;28.30;99.90;;;;;;5017538;28;20032;-68
2022/08/04 12:52:13;;;;;;;22.92;12.48;;;28.30;99.90;;;;;;5063798;28;20393;-68
2022/08/04 12:54:42;;;;;;;22.85;12.45;;;28.40;99.90;;;;;;5058412;28;20036;-67
2022/08/04 12:57:10;;;;;;;23.95;10.50;;;28.40;99.90;;;;;;5061464;28;20028;-67
2022/08/04 12:59:43;;;;;;;25.38;10.25;;;28.30;99.90;;;;;;5052739;28;20498;-68
2022/08/04 13:02:22;;;;;;;22.48;10.63;;;28.30;99.90;;;;;;5062789;28;20028;-68
2022/08/04 13:04:49;;;;;;;19.25;10.15;;;28.40;99.90;;;;;;5072801;28;20024;-68
2022/08/04 13:07:22;;;;;;;17.15;10.25;;;28.40;99.90;;;;;;5069795;28;20031;-68
2022/08/04 13:09:50;;;;;;;19.95;9.77;;;28.30;99.90;;;;;;5070673;28;20020;-68
2022/08/04 13:12:22;;;;;;;25.40;10.00;;;28.20;99.90;;;;;;5071117;28;20029;-67
2022/08/04 13:14:57;;;;;;;18.23;10.20;;;28.20;99.90;;;;;;5070807;28;20108;-68